^^
Datos históricos de la estación: Murcia-Puente Tocinos
Diario Informe para Marzo 8, 2019 Unidades:  Ambas    Ingés   Métrico
Diario Semanal Mensual Anual
  Máxima: Mínima: Promedio:
Temperatura: 87.3 °F /  30.7 °C 59.4 °F /  15.2 °C 73.8 °F /  23.2 °C
Punto de rocio: 60.4 °F /  15.8 °C 49.6 °F /  9.8 °C 55 °F /  12.8 °C
Humedad: 95% 29% 58%
Velocidad viento: 14mph /  22.5km/h - 5.5mph /  8.9km/h
Racha viento: 26mph /  41.8km/h - -
Viento- - SO
Presión: 29.9 in /  1013.9 hPa 29.8 in /  1007.7 hPa -
Precipitación: 0 in /  0.0 mm    
 
 
Tabla de datos para Marzo 8, 2019
Hora Temperatura Punto de rocio Presión Viento Velocidad viento Racha viento Humedad Intensidad lluvia(por hora) Nubes
00:04 64.2 °F /  17.9 °C 59.7 °F /  15.4 °C 29.9in /  1013.9hPa NNO 2.4mph /  3.9km/h 5.2mph /  8.4km/h 85.3% 0in /  0.0mm
00:09 64.2 °F /  17.9 °C 59.9 °F /  15.5 °C 29.9in /  1013.7hPa NO 2.5mph /  4.1km/h 5mph /  8km/h 86% 0in /  0.0mm
00:14 64.2 °F /  17.9 °C 59.9 °F /  15.5 °C 29.9in /  1013.7hPa North 2.9mph /  4.7km/h 4mph /  6.4km/h 86% 0in /  0.0mm
00:19 64.2 °F /  17.9 °C 59.9 °F /  15.5 °C 29.9in /  1013.7hPa NNE 2.5mph /  4km/h 5mph /  8km/h 86% 0in /  0.0mm
00:24 64 °F /  17.8 °C 60.1 °F /  15.6 °C 29.9in /  1013.6hPa NNE 1.8mph /  2.9km/h 5mph /  8km/h 86.8% 0in /  0.0mm
00:29 64 °F /  17.8 °C 60.1 °F /  15.6 °C 29.9in /  1013.6hPa NNE 1.8mph /  2.9km/h 5mph /  8km/h 87% 0in /  0.0mm
00:34 64 °F /  17.8 °C 60.1 °F /  15.6 °C 29.9in /  1013.6hPa NNE 1.8mph /  2.9km/h   87% 0in /  0.0mm
00:39 63.9 °F /  17.7 °C 59.9 °F /  15.5 °C 29.9in /  1013.5hPa NNE 1.1mph /  1.8km/h   87% 0in /  0.0mm
00:44 63.9 °F /  17.7 °C 59.9 °F /  15.5 °C 29.9in /  1013.5hPa Calm   4.6mph /  7.4km/h 87% 0in /  0.0mm
00:49 63.9 °F /  17.7 °C 59.9 °F /  15.5 °C 29.9in /  1013.7hPa NNO 0.8mph /  1.3km/h 5.2mph /  8.4km/h 87% 0in /  0.0mm
00:54 63.9 °F /  17.7 °C 60.1 °F /  15.6 °C 29.9in /  1013.7hPa NNO 2mph /  3.2km/h 5mph /  8km/h 87.8% 0in /  0.0mm
00:59 63.9 °F /  17.7 °C 60.1 °F /  15.6 °C 29.9in /  1013.7hPa NNO 1.9mph /  3.1km/h 4mph /  6.4km/h 88% 0in /  0.0mm
01:04 63.9 °F /  17.7 °C 60.1 °F /  15.6 °C 29.9in /  1013.7hPa NNO 1.8mph /  2.9km/h 4.7mph /  7.6km/h 88% 0in /  0.0mm
01:09 63.7 °F /  17.6 °C 60.1 °F /  15.6 °C 29.9in /  1013.7hPa NO 1.8mph /  2.9km/h 5mph /  8km/h 88% 0in /  0.0mm
01:14 63.7 °F /  17.6 °C 60.1 °F /  15.6 °C 29.9in /  1013.7hPa NO 1.8mph /  2.9km/h 3mph /  4.8km/h 88% 0in /  0.0mm
01:19 63.7 °F /  17.6 °C 60.1 °F /  15.6 °C 29.9in /  1013.7hPa NNE 1.7mph /  2.7km/h 3.5mph /  5.6km/h 88% 0in /  0.0mm
01:24 63.7 °F /  17.6 °C 60.1 °F /  15.6 °C 29.9in /  1013.7hPa NE 1.4mph /  2.2km/h 3mph /  4.8km/h 88% 0in /  0.0mm
01:29 63.7 °F /  17.6 °C 60.3 °F /  15.7 °C 29.9in /  1013.7hPa North 1.4mph /  2.2km/h 4.6mph /  7.4km/h 88.7% 0in /  0.0mm
01:34 63.7 °F /  17.6 °C 60.4 °F /  15.8 °C 29.9in /  1013.7hPa NNO 1.4mph /  2.2km/h 5mph /  8km/h 89% 0in /  0.0mm
01:39 63.7 °F /  17.6 °C 60.4 °F /  15.8 °C 29.9in /  1013.6hPa North 1.4mph /  2.2km/h 3mph /  4.8km/h 89% 0in /  0.0mm
01:44 63.7 °F /  17.6 °C 60.4 °F /  15.8 °C 29.9in /  1013.6hPa North 1.4mph /  2.2km/h   89% 0in /  0.0mm
01:49 63.7 °F /  17.6 °C 60.4 °F /  15.8 °C 29.9in /  1013.6hPa North 0.9mph /  1.4km/h   89% 0in /  0.0mm
01:54 63.5 °F /  17.5 °C 60.3 °F /  15.7 °C 29.9in /  1013.5hPa Calm   2.4mph /  3.9km/h 89% 0in /  0.0mm
01:59 63.7 °F /  17.6 °C 60.3 °F /  15.7 °C 29.9in /  1013.5hPa Calm   3.6mph /  5.8km/h 89% 0in /  0.0mm
02:04 63.7 °F /  17.6 °C 60.4 °F /  15.8 °C 29.9in /  1013.5hPa Calm   4mph /  6.4km/h 89% 0in /  0.0mm
02:09 63.7 °F /  17.6 °C 60.3 °F /  15.7 °C 29.9in /  1013.2hPa SE 0.5mph /  0.8km/h 3mph /  4.8km/h 88.4% 0in /  0.0mm
02:14 63.5 °F /  17.5 °C 59.9 °F /  15.5 °C 29.9in /  1013.2hPa SE 1.4mph /  2.2km/h   88% 0in /  0.0mm
02:19 63.5 °F /  17.5 °C 59.9 °F /  15.5 °C 29.9in /  1013.2hPa SE 0.9mph /  1.4km/h 3.1mph /  5km/h 88% 0in /  0.0mm
02:24 63.5 °F /  17.5 °C 59.9 °F /  15.5 °C 29.9in /  1013.0hPa Calm   3.6mph /  5.8km/h 88% 0in /  0.0mm
02:29 63.5 °F /  17.5 °C 59.9 °F /  15.5 °C 29.9in /  1013.0hPa Calm   4mph /  6.4km/h 88% 0in /  0.0mm
02:34 63.5 °F /  17.5 °C 59.7 °F /  15.4 °C 29.9in /  1013.0hPa Calm   2mph /  3.2km/h 87.5% 0in /  0.0mm
02:39 63.5 °F /  17.5 °C 59.5 °F /  15.3 °C 29.9in /  1012.9hPa Calm     87% 0in /  0.0mm
02:44 63.3 °F /  17.4 °C 59.4 °F /  15.2 °C 29.9in /  1012.9hPa Calm     87% 0in /  0.0mm
02:49 63.3 °F /  17.4 °C 59.4 °F /  15.2 °C 29.9in /  1012.9hPa Calm     87% 0in /  0.0mm
02:54 63.3 °F /  17.4 °C 59.4 °F /  15.2 °C 29.9in /  1012.8hPa Calm     87% 0in /  0.0mm
02:59 63.3 °F /  17.4 °C 59.4 °F /  15.2 °C 29.9in /  1012.8hPa Calm   3.1mph /  5km/h 86.6% 0in /  0.0mm
03:04 63.3 °F /  17.4 °C 59.2 °F /  15.1 °C 29.9in /  1012.8hPa Calm   4.6mph /  7.4km/h 86% 0in /  0.0mm
03:09 63.3 °F /  17.4 °C 59.2 °F /  15.1 °C 29.9in /  1012.6hPa Sur 0.7mph /  1.2km/h 5.9mph /  9.5km/h 86% 0in /  0.0mm
03:14 63.3 °F /  17.4 °C 59 °F /  15 °C 29.9in /  1012.6hPa Sur 2mph /  3.2km/h 6mph /  9.7km/h 85.7% 0in /  0.0mm
03:19 63.3 °F /  17.4 °C 58.6 °F /  14.8 °C 29.9in /  1012.6hPa Sur 2.7mph /  4.4km/h 6.2mph /  10km/h 85% 0in /  0.0mm
03:24 63.3 °F /  17.4 °C 58.6 °F /  14.8 °C 29.9in /  1012.3hPa SSO 4mph /  6.5km/h 6mph /  9.7km/h 85% 0in /  0.0mm
03:29 63.3 °F /  17.4 °C 58.8 °F /  14.9 °C 29.9in /  1012.3hPa SSO 3.9mph /  6.2km/h 7.6mph /  12.2km/h 85.2% 0in /  0.0mm
03:34 63.3 °F /  17.4 °C 59.2 °F /  15.1 °C 29.9in /  1012.3hPa SSO 3.6mph /  5.8km/h 8.1mph /  13km/h 86% 0in /  0.0mm
03:39 63.3 °F /  17.4 °C 59.2 °F /  15.1 °C 29.9in /  1012.3hPa SSO 4.2mph /  6.8km/h 7mph /  11.3km/h 86% 0in /  0.0mm
03:44 63.3 °F /  17.4 °C 59 °F /  15 °C 29.9in /  1012.3hPa SO 5.2mph /  8.4km/h 7mph /  11.3km/h 86% 0in /  0.0mm
03:49 63.1 °F /  17.3 °C 59 °F /  15 °C 29.9in /  1012.3hPa SSO 4.8mph /  7.8km/h 7.6mph /  12.2km/h 86% 0in /  0.0mm
03:54 63 °F /  17.2 °C 58.8 °F /  14.9 °C 29.9in /  1012.3hPa SSO 4.3mph /  6.9km/h 8.1mph /  13km/h 86% 0in /  0.0mm
03:59 63 °F /  17.2 °C 58.8 °F /  14.9 °C 29.9in /  1012.3hPa SO 4.3mph /  6.9km/h 8mph /  12.9km/h 86.6% 0in /  0.0mm
04:04 63 °F /  17.2 °C 59 °F /  15 °C 29.9in /  1012.3hPa SO 4.3mph /  6.9km/h 7.4mph /  11.9km/h 87% 0in /  0.0mm
04:09 63 °F /  17.2 °C 59 °F /  15 °C 29.9in /  1012.2hPa SSO 4mph /  6.5km/h 7mph /  11.3km/h 87% 0in /  0.0mm
04:14 62.8 °F /  17.1 °C 58.8 °F /  14.9 °C 29.9in /  1012.2hPa SSO 3.6mph /  5.8km/h 8.5mph /  13.7km/h 87% 0in /  0.0mm
04:19 62.8 °F /  17.1 °C 58.8 °F /  14.9 °C 29.9in /  1012.2hPa SSO 4mph /  6.4km/h 9mph /  14.5km/h 87% 0in /  0.0mm
04:24 62.6 °F /  17 °C 58.6 °F /  14.8 °C 29.9in /  1012.2hPa SSO 4.7mph /  7.6km/h 9mph /  14.5km/h 87% 0in /  0.0mm
04:29 62.4 °F /  16.9 °C 58.5 °F /  14.7 °C 29.9in /  1012.2hPa SSO 5mph /  8km/h 9.2mph /  14.8km/h 87% 0in /  0.0mm
04:34 62.4 °F /  16.9 °C 58.6 °F /  14.8 °C 29.9in /  1012.2hPa SO 5.4mph /  8.7km/h 9.2mph /  14.8km/h 87.5% 0in /  0.0mm
04:39 62.4 °F /  16.9 °C 58.8 °F /  14.9 °C 29.9in /  1012.0hPa SO 5.2mph /  8.3km/h 8.1mph /  13km/h 88% 0in /  0.0mm
04:44 62.4 °F /  16.9 °C 58.8 °F /  14.9 °C 29.9in /  1012.0hPa SO 4.7mph /  7.6km/h 8.1mph /  13km/h 88% 0in /  0.0mm
04:49 62.4 °F /  16.9 °C 58.8 °F /  14.9 °C 29.9in /  1012.0hPa SO 4.3mph /  6.9km/h 8mph /  12.9km/h 88% 0in /  0.0mm
04:54 62.4 °F /  16.9 °C 58.8 °F /  14.9 °C 29.9in /  1012.0hPa SSO 3.6mph /  5.8km/h 7.4mph /  11.9km/h 87.8% 0in /  0.0mm
04:59 62.4 °F /  16.9 °C 58.5 °F /  14.7 °C 29.9in /  1012.0hPa SSO 4.1mph /  6.6km/h 7.4mph /  11.9km/h 87% 0in /  0.0mm
05:04 62.2 °F /  16.8 °C 58.3 °F /  14.6 °C 29.9in /  1012.0hPa SSO 4.7mph /  7.6km/h 7.4mph /  11.9km/h 87% 0in /  0.0mm
05:09 62.2 °F /  16.8 °C 58.5 °F /  14.7 °C 29.9in /  1011.8hPa SSO 4.7mph /  7.6km/h 8.1mph /  13km/h 87.4% 0in /  0.0mm
05:14 62.1 °F /  16.7 °C 58.5 °F /  14.7 °C 29.9in /  1011.8hPa SSO 4.7mph /  7.6km/h 8mph /  12.9km/h 88% 0in /  0.0mm
05:19 62.1 °F /  16.7 °C 58.5 °F /  14.7 °C 29.9in /  1011.8hPa SSO 4.1mph /  6.6km/h 6mph /  9.7km/h 88% 0in /  0.0mm
05:24 62.1 °F /  16.7 °C 58.5 °F /  14.7 °C 29.9in /  1011.7hPa SSO 3.1mph /  5km/h 6mph /  9.7km/h 88% 0in /  0.0mm
05:29 62.1 °F /  16.7 °C 58.6 °F /  14.8 °C 29.9in /  1011.7hPa SO 3.3mph /  5.3km/h 7.6mph /  12.2km/h 88.5% 0in /  0.0mm
05:34 62.1 °F /  16.7 °C 58.8 °F /  14.9 °C 29.9in /  1011.7hPa SO 3.6mph /  5.8km/h 8.1mph /  13km/h 89% 0in /  0.0mm
05:39 62.1 °F /  16.7 °C 58.6 °F /  14.8 °C 29.9in /  1011.6hPa SO 3.9mph /  6.2km/h 7mph /  11.3km/h 89% 0in /  0.0mm
05:44 61.9 °F /  16.6 °C 58.6 °F /  14.8 °C 29.9in /  1011.6hPa SSO 4.3mph /  6.9km/h 7mph /  11.3km/h 89% 0in /  0.0mm
05:49 61.9 °F /  16.6 °C 58.5 °F /  14.7 °C 29.9in /  1011.6hPa SO 4mph /  6.5km/h 6mph /  9.7km/h 89% 0in /  0.0mm
05:54 61.7 °F /  16.5 °C 58.3 °F /  14.6 °C 29.9in /  1011.3hPa SO 3.6mph /  5.8km/h 6.4mph /  10.3km/h 89% 0in /  0.0mm
05:59 61.5 °F /  16.4 °C 58.3 °F /  14.6 °C 29.9in /  1011.3hPa SO 3.8mph /  6.1km/h 8.5mph /  13.7km/h 89.2% 0in /  0.0mm
06:04 61.5 °F /  16.4 °C 58.6 °F /  14.8 °C 29.9in /  1011.4hPa SO 4mph /  6.5km/h 9mph /  14.5km/h 90% 0in /  0.0mm
06:09 61.3 °F /  16.3 °C 58.3 °F /  14.6 °C 29.9in /  1011.4hPa SO 4.1mph /  6.6km/h 9.2mph /  14.8km/h 89.7% 0in /  0.0mm
06:14 61.3 °F /  16.3 °C 58.3 °F /  14.6 °C 29.9in /  1011.4hPa SO 4.3mph /  6.9km/h 9mph /  14.5km/h 90% 0in /  0.0mm
06:19 61.2 °F /  16.2 °C 58.1 °F /  14.5 °C 29.9in /  1011.5hPa SO 4.5mph /  7.2km/h 9mph /  14.5km/h 90% 0in /  0.0mm
06:24 61 °F /  16.1 °C 57.9 °F /  14.4 °C 29.9in /  1011.5hPa SO 4.7mph /  7.6km/h 8.1mph /  13km/h 90% 0in /  0.0mm
06:29 60.4 °F /  15.8 °C 57.7 °F /  14.3 °C 29.9in /  1011.5hPa SO 4.5mph /  7.3km/h 8mph /  12.9km/h 90.6% 0in /  0.0mm
06:34 60.3 °F /  15.7 °C 57.7 °F /  14.3 °C 29.9in /  1011.5hPa SSO 4.3mph /  6.9km/h 10mph /  16.1km/h 91.2% 0in /  0.0mm
06:39 60.1 °F /  15.6 °C 57.7 °F /  14.3 °C 29.9in /  1011.2hPa SSO 4.5mph /  7.2km/h 10mph /  16.1km/h 92% 0in /  0.0mm
06:44 59.9 °F /  15.5 °C 57.7 °F /  14.3 °C 29.9in /  1011.2hPa SO 4.7mph /  7.6km/h 9.7mph /  15.6km/h 92.8% 0in /  0.0mm
06:49 59.7 °F /  15.4 °C 57.7 °F /  14.3 °C 29.9in /  1011.3hPa SO 5.2mph /  8.3km/h 10mph /  16.1km/h 93.1% 0in /  0.0mm
06:54 59.7 °F /  15.4 °C 57.9 °F /  14.4 °C 29.9in /  1011.3hPa SSO 5.9mph /  9.5km/h 9mph /  14.5km/h 94% 0in /  0.0mm
06:59 59.7 °F /  15.4 °C 57.9 °F /  14.4 °C 29.9in /  1011.3hPa SSO 5.3mph /  8.6km/h 10mph /  16.1km/h 94% 0in /  0.0mm
07:04 59.5 °F /  15.3 °C 57.9 °F /  14.4 °C 29.9in /  1011.6hPa SO 4.7mph /  7.6km/h 11.2mph /  18km/h 94% 0in /  0.0mm
07:09 59.5 °F /  15.3 °C 57.7 °F /  14.3 °C 29.9in /  1011.6hPa SO 5.2mph /  8.3km/h 12mph /  19.3km/h 94% 0in /  0.0mm
07:14 59.5 °F /  15.3 °C 57.7 °F /  14.3 °C 29.9in /  1011.6hPa SSO 5.9mph /  9.5km/h 12mph /  19.3km/h 94% 0in /  0.0mm
07:19 59.4 °F /  15.2 °C 57.6 °F /  14.2 °C 29.9in /  1011.6hPa SSO 5.7mph /  9.2km/h 10.4mph /  16.7km/h 94% 0in /  0.0mm
07:24 59.4 °F /  15.2 °C 57.7 °F /  14.3 °C 29.9in /  1011.6hPa SSO 5.4mph /  8.7km/h 10mph /  16.1km/h 94.2% 0in /  0.0mm
07:29 59.4 °F /  15.2 °C 57.7 °F /  14.3 °C 29.9in /  1011.6hPa SSO 5.2mph /  8.3km/h 9.2mph /  14.8km/h 94.4% 0in /  0.0mm
07:34 59.4 °F /  15.2 °C 57.9 °F /  14.4 °C 29.9in /  1011.7hPa SSO 4.7mph /  7.6km/h 9mph /  14.5km/h 95% 0in /  0.0mm
07:39 59.5 °F /  15.3 °C 58.1 °F /  14.5 °C 29.9in /  1011.7hPa SSO 4.9mph /  7.9km/h 11.5mph /  18.5km/h 94.9% 0in /  0.0mm
07:44 59.5 °F /  15.3 °C 57.7 °F /  14.3 °C 29.9in /  1011.7hPa SSO 5.2mph /  8.4km/h 12mph /  19.3km/h 94% 0in /  0.0mm
07:49 59.5 °F /  15.3 °C 57.7 °F /  14.3 °C 29.9in /  1011.7hPa Sur 5.5mph /  8.9km/h 9.2mph /  14.8km/h 94% 0in /  0.0mm
07:54 59.7 °F /  15.4 °C 57.9 °F /  14.4 °C 29.9in /  1011.7hPa Sur 6.2mph /  10km/h 10.2mph /  16.4km/h 94% 0in /  0.0mm
07:59 59.7 °F /  15.4 °C 57.9 °F /  14.4 °C 29.9in /  1011.7hPa Sur 6.3mph /  10.1km/h 10.4mph /  16.7km/h 94% 0in /  0.0mm
08:04 59.7 °F /  15.4 °C 57.9 °F /  14.4 °C 29.9in /  1011.8hPa Sur 6.4mph /  10.3km/h 10mph /  16.1km/h 94% 0in /  0.0mm
08:09 59.7 °F /  15.4 °C 57.9 °F /  14.4 °C 29.9in /  1011.8hPa SSO 6.3mph /  10.2km/h 9.2mph /  14.8km/h 94% 0in /  0.0mm
08:14 59.9 °F /  15.5 °C 58.3 °F /  14.6 °C 29.9in /  1011.8hPa SSO 6.2mph /  10km/h 9mph /  14.5km/h 94% 0in /  0.0mm
08:19 60.3 °F /  15.7 °C 58.5 °F /  14.7 °C 29.9in /  1012.0hPa SO 5.7mph /  9.1km/h 7mph /  11.3km/h 94% 0in /  0.0mm
08:24 60.4 °F /  15.8 °C 58.5 °F /  14.7 °C 29.9in /  1012.0hPa OSO 4.7mph /  7.6km/h 6.9mph /  11.1km/h 93.3% 0in /  0.0mm
08:29 60.8 °F /  16 °C 58.6 °F /  14.8 °C 29.9in /  1012.0hPa OSO 4.1mph /  6.6km/h 7mph /  11.3km/h 92.8% 0in /  0.0mm
08:34 61 °F /  16.1 °C 58.5 °F /  14.7 °C 29.9in /  1012.0hPa Oeste 3.1mph /  5km/h 6.2mph /  10km/h 91.4% 0in /  0.0mm
08:39 61.3 °F /  16.3 °C 58.6 °F /  14.8 °C 29.9in /  1012.0hPa SO 3.1mph /  5km/h 6mph /  9.7km/h 90.8% 0in /  0.0mm
08:44 61.7 °F /  16.5 °C 58.6 °F /  14.8 °C 29.9in /  1012.0hPa SSE 3.1mph /  5km/h 6.2mph /  10km/h 89.4% 0in /  0.0mm
08:49 62.2 °F /  16.8 °C 58.8 °F /  14.9 °C 29.9in /  1012.0hPa SSE 3.4mph /  5.5km/h 6.9mph /  11.1km/h 88.5% 0in /  0.0mm
08:54 62.6 °F /  17 °C 58.8 °F /  14.9 °C 29.9in /  1011.9hPa Sur 4mph /  6.5km/h 7mph /  11.3km/h 87.2% 0in /  0.0mm
08:59 63 °F /  17.2 °C 58.6 °F /  14.8 °C 29.9in /  1011.9hPa SSO 4mph /  6.5km/h 7mph /  11.3km/h 86.1% 0in /  0.0mm
09:04 63.1 °F /  17.3 °C 58.6 °F /  14.8 °C 29.9in /  1011.9hPa SSO 4mph /  6.5km/h 6.9mph /  11.1km/h 84.9% 0in /  0.0mm
09:09 63.9 °F /  17.7 °C 58.8 °F /  14.9 °C 29.9in /  1011.9hPa Sur 4.1mph /  6.6km/h 7mph /  11.3km/h 83.6% 0in /  0.0mm
09:14 64.2 °F /  17.9 °C 58.8 °F /  14.9 °C 29.9in /  1011.9hPa SSO 4.3mph /  6.9km/h 8.1mph /  13km/h 82.4% 0in /  0.0mm
09:19 64.8 °F /  18.2 °C 59 °F /  15 °C 29.9in /  1011.9hPa SO 4.3mph /  6.9km/h 8mph /  12.9km/h 81.3% 0in /  0.0mm
09:24 65.3 °F /  18.5 °C 59 °F /  15 °C 29.9in /  1011.8hPa SSO 4.3mph /  6.9km/h 7mph /  11.3km/h 79.8% 0in /  0.0mm
09:29 65.8 °F /  18.8 °C 58.6 °F /  14.8 °C 29.9in /  1011.8hPa SSO 4mph /  6.5km/h 7mph /  11.3km/h 77.4% 0in /  0.0mm
09:34 66.4 °F /  19.1 °C 58.8 °F /  14.9 °C 29.9in /  1011.8hPa SSO 3.6mph /  5.8km/h 7mph /  11.3km/h 76.6% 0in /  0.0mm
09:39 66.7 °F /  19.3 °C 58.6 °F /  14.8 °C 29.9in /  1011.7hPa SSE 3.9mph /  6.2km/h 9.2mph /  14.8km/h 74.9% 0in /  0.0mm
09:44 67.1 °F /  19.5 °C 58.5 °F /  14.7 °C 29.9in /  1011.7hPa SSO 4.3mph /  6.9km/h 9.2mph /  14.8km/h 73.7% 0in /  0.0mm
09:49 67.5 °F /  19.7 °C 58.5 °F /  14.7 °C 29.9in /  1011.8hPa SO 4.3mph /  6.9km/h 9mph /  14.5km/h 72.9% 0in /  0.0mm
09:54 68 °F /  20 °C 58.3 °F /  14.6 °C 29.9in /  1011.8hPa OSO 4.3mph /  6.9km/h 7mph /  11.3km/h 71.1% 0in /  0.0mm
09:59 68.7 °F /  20.4 °C 57.9 °F /  14.4 °C 29.9in /  1011.8hPa Oeste 3.6mph /  5.8km/h 5.9mph /  9.5km/h 68.6% 0in /  0.0mm
10:04 69.3 °F /  20.7 °C 57.9 °F /  14.4 °C 29.9in /  1011.8hPa Sur 2.9mph /  4.6km/h 6mph /  9.7km/h 66.9% 0in /  0.0mm
10:09 70 °F /  21.1 °C 57.7 °F /  14.3 °C 29.9in /  1011.8hPa SO 2.7mph /  4.4km/h 6mph /  9.7km/h 65.1% 0in /  0.0mm
10:14 70.5 °F /  21.4 °C 57.4 °F /  14.1 °C 29.9in /  1011.8hPa Sur 2.4mph /  3.9km/h 6.2mph /  10km/h 62.9% 0in /  0.0mm
10:19 71.2 °F /  21.8 °C 56.1 °F /  13.4 °C 29.9in /  1011.8hPa SSO 2.6mph /  4.2km/h 6.2mph /  10km/h 59% 0in /  0.0mm
10:24 72 °F /  22.2 °C 55 °F /  12.8 °C 29.9in /  1011.8hPa SSO 2.9mph /  4.7km/h 6.9mph /  11.1km/h 55.4% 0in /  0.0mm
10:29 72.5 °F /  22.5 °C 55 °F /  12.8 °C 29.9in /  1011.8hPa SSO 3.4mph /  5.5km/h 7mph /  11.3km/h 54.1% 0in /  0.0mm
10:34 73 °F /  22.8 °C 54.5 °F /  12.5 °C 29.9in /  1011.8hPa SSO 4.3mph /  6.9km/h 7.4mph /  11.9km/h 52.2% 0in /  0.0mm
10:39 73.8 °F /  23.2 °C 54 °F /  12.2 °C 29.9in /  1011.6hPa Sur 4.2mph /  6.8km/h 9.2mph /  14.8km/h 50% 0in /  0.0mm
10:44 74.5 °F /  23.6 °C 53.6 °F /  12 °C 29.9in /  1011.6hPa SSE 4mph /  6.5km/h 9mph /  14.5km/h 48.2% 0in /  0.0mm
10:49 74.8 °F /  23.8 °C 53.6 °F /  12 °C 29.9in /  1011.6hPa SSO 4.5mph /  7.2km/h 9.2mph /  14.8km/h 47.6% 0in /  0.0mm
10:54 75.2 °F /  24 °C 53.6 °F /  12 °C 29.9in /  1011.6hPa SO 5.2mph /  8.4km/h 9mph /  14.5km/h 47.1% 0in /  0.0mm
10:59 75.7 °F /  24.3 °C 53.8 °F /  12.1 °C 29.9in /  1011.6hPa SSE 4.2mph /  6.8km/h 6mph /  9.7km/h 46.6% 0in /  0.0mm
11:04 76.6 °F /  24.8 °C 53.8 °F /  12.1 °C 29.9in /  1011.8hPa SSE 3.1mph /  5km/h 6.9mph /  11.1km/h 45.2% 0in /  0.0mm
11:09 77.2 °F /  25.1 °C 53.6 °F /  12 °C 29.9in /  1011.8hPa SSO 2.7mph /  4.4km/h 7mph /  11.3km/h 44.1% 0in /  0.0mm
11:14 77.7 °F /  25.4 °C 53.6 °F /  12 °C 29.9in /  1011.8hPa SSE 2mph /  3.2km/h 7.4mph /  11.9km/h 43.3% 0in /  0.0mm
11:19 78.3 °F /  25.7 °C 53.2 °F /  11.8 °C 29.9in /  1011.8hPa Sur 2.4mph /  3.9km/h 8.7mph /  14km/h 42.2% 0in /  0.0mm
11:24 78.3 °F /  25.7 °C 53.6 °F /  12 °C 29.9in /  1011.6hPa SO 3.1mph /  5km/h 9.2mph /  14.8km/h 42.7% 0in /  0.0mm
11:29 78.3 °F /  25.7 °C 54 °F /  12.2 °C 29.9in /  1011.6hPa OSO 3.4mph /  5.5km/h 9mph /  14.5km/h 43% 0in /  0.0mm
11:34 78.4 °F /  25.8 °C 52.9 °F /  11.6 °C 29.9in /  1011.6hPa Oeste 4mph /  6.5km/h 9.2mph /  14.8km/h 41.2% 0in /  0.0mm
11:39 78.6 °F /  25.9 °C 52.3 °F /  11.3 °C 29.9in /  1011.5hPa Oeste 4.1mph /  6.6km/h 9.2mph /  14.8km/h 40.1% 0in /  0.0mm
11:44 79 °F /  26.1 °C 52.9 °F /  11.6 °C 29.9in /  1011.5hPa OSO 4.3mph /  6.9km/h 10.2mph /  16.4km/h 40.6% 0in /  0.0mm
11:49 79.3 °F /  26.3 °C 52.7 °F /  11.5 °C 29.9in /  1011.5hPa Oeste 4.7mph /  7.6km/h 10.4mph /  16.7km/h 39.8% 0in /  0.0mm
11:54 79.9 °F /  26.6 °C 52.2 °F /  11.2 °C 29.9in /  1011.5hPa OSO 5.4mph /  8.7km/h 13.8mph /  22.2km/h 38.4% 0in /  0.0mm
11:59 80.1 °F /  26.7 °C 52.2 °F /  11.2 °C 29.9in /  1011.5hPa SO 6.4mph /  10.3km/h 14mph /  22.5km/h 38% 0in /  0.0mm
12:04 80.2 °F /  26.8 °C 52.3 °F /  11.3 °C 29.9in /  1011.5hPa OSO 7.4mph /  11.9km/h 14mph /  22.5km/h 38% 0in /  0.0mm
12:09 80.1 °F /  26.7 °C 52.3 °F /  11.3 °C 29.9in /  1011.4hPa SO 7.5mph /  12km/h 14mph /  22.5km/h 38.3% 0in /  0.0mm
12:14 80.2 °F /  26.8 °C 52.5 °F /  11.4 °C 29.9in /  1011.4hPa SSO 7.6mph /  12.2km/h 14mph /  22.5km/h 38.1% 0in /  0.0mm
12:19 81 °F /  27.2 °C 52.9 °F /  11.6 °C 29.9in /  1011.4hPa SO 7.5mph /  12.1km/h 12mph /  19.3km/h 37.8% 0in /  0.0mm
12:24 81.5 °F /  27.5 °C 52.7 °F /  11.5 °C 29.9in /  1011.2hPa Sur 7.4mph /  11.9km/h 12.7mph /  20.4km/h 37% 0in /  0.0mm
12:29 81.5 °F /  27.5 °C 51.8 °F /  11 °C 29.9in /  1011.2hPa OSO 7mph /  11.3km/h 13mph /  20.9km/h 35.8% 0in /  0.0mm
12:34 81.5 °F /  27.5 °C 52 °F /  11.1 °C 29.9in /  1011.2hPa OSO 6.4mph /  10.3km/h 13.5mph /  21.7km/h 35.9% 0in /  0.0mm
12:39 82 °F /  27.8 °C 50.5 °F /  10.3 °C 29.9in /  1011.0hPa OSO 6.8mph /  11km/h 16.3mph /  26.2km/h 33.6% 0in /  0.0mm
12:44 82.6 °F /  28.1 °C 50.2 °F /  10.1 °C 29.9in /  1011.0hPa OSO 7.6mph /  12.2km/h 17.5mph /  28.2km/h 32.5% 0in /  0.0mm
12:49 82.8 °F /  28.2 °C 50 °F /  10 °C 29.9in /  1011.0hPa SO 8mph /  12.8km/h 17.3mph /  27.8km/h 32.1% 0in /  0.0mm
12:54 83.1 °F /  28.4 °C 50.2 °F /  10.1 °C 29.8in /  1010.7hPa OSO 8.5mph /  13.7km/h 17mph /  27.4km/h 32% 0in /  0.0mm
12:59 83.1 °F /  28.4 °C 50.2 °F /  10.1 °C 29.8in /  1010.7hPa OSO 8mph /  12.9km/h 15mph /  24.1km/h 32% 0in /  0.0mm
13:04 82.9 °F /  28.3 °C 50 °F /  10 °C 29.8in /  1010.7hPa Oeste 7.4mph /  11.9km/h 14mph /  22.5km/h 32% 0in /  0.0mm
13:09 82.8 °F /  28.2 °C 50.5 °F /  10.3 °C 29.8in /  1010.7hPa Oeste 7.4mph /  11.9km/h 14mph /  22.5km/h 32.8% 0in /  0.0mm
13:14 82.8 °F /  28.2 °C 50.5 °F /  10.3 °C 29.8in /  1010.7hPa Oeste 7.4mph /  11.9km/h 13.8mph /  22.2km/h 32.8% 0in /  0.0mm
13:19 82.9 °F /  28.3 °C 50 °F /  10 °C 29.8in /  1010.7hPa OSO 7.5mph /  12km/h 14.5mph /  23.3km/h 32% 0in /  0.0mm
13:24 82.9 °F /  28.3 °C 50 °F /  10 °C 29.8in /  1010.5hPa Oeste 7.6mph /  12.2km/h 15mph /  24.1km/h 32% 0in /  0.0mm
13:29 82.9 °F /  28.3 °C 50 °F /  10 °C 29.8in /  1010.5hPa Oeste 7.6mph /  12.2km/h 14mph /  22.5km/h 32% 0in /  0.0mm
13:34 83.1 °F /  28.4 °C 50.2 °F /  10.1 °C 29.8in /  1010.5hPa Oeste 7.6mph /  12.2km/h 14mph /  22.5km/h 32% 0in /  0.0mm
13:39 83.3 °F /  28.5 °C 50.4 °F /  10.2 °C 29.8in /  1010.1hPa Oeste 7.3mph /  11.8km/h 14mph /  22.5km/h 32% 0in /  0.0mm
13:44 83.5 °F /  28.6 °C 50.9 °F /  10.5 °C 29.8in /  1010.1hPa Oeste 6.9mph /  11.1km/h 13mph /  20.9km/h 32.4% 0in /  0.0mm
13:49 83.3 °F /  28.5 °C 50.4 °F /  10.2 °C 29.8in /  1010.1hPa NO 6.7mph /  10.8km/h 13mph /  20.9km/h 32.1% 0in /  0.0mm
13:54 83.3 °F /  28.5 °C 50.2 °F /  10.1 °C 29.8in /  1010.0hPa NO 6.4mph /  10.3km/h 13.8mph /  22.2km/h 31.7% 0in /  0.0mm
13:59 83.7 °F /  28.7 °C 49.8 °F /  9.9 °C 29.8in /  1010.0hPa NO 6.3mph /  10.2km/h 14mph /  22.5km/h 31.1% 0in /  0.0mm
14:04 83.8 °F /  28.8 °C 49.6 °F /  9.8 °C 29.8in /  1010.0hPa OSO 6.2mph /  10km/h 15mph /  24.1km/h 30.5% 0in /  0.0mm
14:09 83.8 °F /  28.8 °C 50 °F /  10 °C 29.8in /  1010.0hPa ONO 6.9mph /  11.1km/h 15mph /  24.1km/h 31% 0in /  0.0mm
14:14 84 °F /  28.9 °C 50 °F /  10 °C 29.8in /  1010.0hPa ONO 8.1mph /  13km/h 15mph /  24.1km/h 31% 0in /  0.0mm
14:19 84.4 °F /  29.1 °C 50.4 °F /  10.2 °C 29.8in /  1010.0hPa NO 7.8mph /  12.6km/h 15mph /  24.1km/h 31% 0in /  0.0mm
14:24 84.4 °F /  29.1 °C 50.2 °F /  10.1 °C 29.8in /  1009.7hPa ONO 7.4mph /  11.9km/h 15mph /  24.1km/h 30.6% 0in /  0.0mm
14:29 84.2 °F /  29 °C 50.2 °F /  10.1 °C 29.8in /  1009.7hPa ONO 8.2mph /  13.2km/h 14mph /  22.5km/h 30.8% 0in /  0.0mm
14:34 84.4 °F /  29.1 °C 50.4 °F /  10.2 °C 29.8in /  1009.7hPa ONO 9.7mph /  15.6km/h 14mph /  22.5km/h 31% 0in /  0.0mm
14:39 84.6 °F /  29.2 °C 50.5 °F /  10.3 °C 29.8in /  1009.7hPa NO 8.9mph /  14.3km/h 16.1mph /  25.9km/h 31% 0in /  0.0mm
14:44 84.6 °F /  29.2 °C 50.2 °F /  10.1 °C 29.8in /  1009.7hPa ONO 7.4mph /  11.9km/h 16mph /  25.7km/h 30.7% 0in /  0.0mm
14:49 84.6 °F /  29.2 °C 50.5 °F /  10.3 °C 29.8in /  1009.7hPa ONO 7.4mph /  11.9km/h 15mph /  24.1km/h 31% 0in /  0.0mm
14:54 84.6 °F /  29.2 °C 50.9 °F /  10.5 °C 29.8in /  1009.4hPa NO 7.4mph /  11.9km/h 14mph /  22.5km/h 31.2% 0in /  0.0mm
14:59 85.1 °F /  29.5 °C 51.1 °F /  10.6 °C 29.8in /  1009.4hPa ONO 7.4mph /  11.9km/h 12mph /  19.3km/h 31% 0in /  0.0mm
15:04 85.5 °F /  29.7 °C 51.3 °F /  10.7 °C 29.8in /  1009.4hPa ONO 7.4mph /  11.9km/h 12mph /  19.3km/h 30.9% 0in /  0.0mm
15:09 85.5 °F /  29.7 °C 50.4 °F /  10.2 °C 29.8in /  1009.3hPa ONO 7mph /  11.2km/h 12.7mph /  20.4km/h 30% 0in /  0.0mm
15:14 85.5 °F /  29.7 °C 50.4 °F /  10.2 °C 29.8in /  1009.3hPa Oeste 6.2mph /  10km/h 13mph /  20.9km/h 30% 0in /  0.0mm
15:19 85.6 °F /  29.8 °C 50.5 °F /  10.3 °C 29.8in /  1009.3hPa Oeste 5.8mph /  9.4km/h 10.7mph /  17.2km/h 30% 0in /  0.0mm
15:24 85.8 °F /  29.9 °C 50.7 °F /  10.4 °C 29.8in /  1009.1hPa Oeste 5.2mph /  8.4km/h 15mph /  24.1km/h 30% 0in /  0.0mm
15:29 85.8 °F /  29.9 °C 50.7 °F /  10.4 °C 29.8in /  1009.1hPa Oeste 5.5mph /  8.9km/h 15mph /  24.1km/h 30% 0in /  0.0mm
15:34 86 °F /  30 °C 51.1 °F /  10.6 °C 29.8in /  1009.1hPa ONO 6.2mph /  10km/h 13mph /  20.9km/h 30.2% 0in /  0.0mm
15:39 86.2 °F /  30.1 °C 51.1 °F /  10.6 °C 29.8in /  1008.9hPa Oeste 6.2mph /  10km/h 13.8mph /  22.2km/h 30% 0in /  0.0mm
15:44 86.4 °F /  30.2 °C 51.4 °F /  10.8 °C 29.8in /  1008.9hPa ONO 6.2mph /  10km/h 15.9mph /  25.6km/h 30.3% 0in /  0.0mm
15:49 86 °F /  30 °C 51.4 °F /  10.8 °C 29.8in /  1008.9hPa Oeste 6.7mph /  10.8km/h 16.1mph /  25.9km/h 30.6% 0in /  0.0mm
15:54 86.4 °F /  30.2 °C 51.4 °F /  10.8 °C 29.8in /  1008.7hPa Oeste 7.6mph /  12.2km/h 14mph /  22.5km/h 30.1% 0in /  0.0mm
15:59 86.5 °F /  30.3 °C 50.4 °F /  10.2 °C 29.8in /  1008.7hPa SSO 6.8mph /  10.9km/h 13mph /  20.9km/h 29% 0in /  0.0mm
16:04 86.5 °F /  30.3 °C 51.3 °F /  10.7 °C 29.8in /  1008.7hPa SSE 5.9mph /  9.5km/h 13mph /  20.9km/h 29.7% 0in /  0.0mm
16:09 86.9 °F /  30.5 °C 51.6 °F /  10.9 °C 29.8in /  1008.7hPa North 5.2mph /  8.4km/h 11mph /  17.7km/h 29.7% 0in /  0.0mm
16:14 87.3 °F /  30.7 °C 51.3 °F /  10.7 °C 29.8in /  1008.7hPa Oeste 4mph /  6.5km/h 11.5mph /  18.5km/h 29.2% 0in /  0.0mm
16:19 87.3 °F /  30.7 °C 51.1 °F /  10.6 °C 29.8in /  1008.7hPa ONO 4.1mph /  6.6km/h 12mph /  19.3km/h 29.1% 0in /  0.0mm
16:24 86.9 °F /  30.5 °C 51.6 °F /  10.9 °C 29.8in /  1008.4hPa ONO 4.3mph /  6.9km/h 12.3mph /  19.8km/h 29.9% 0in /  0.0mm
16:29 86.5 °F /  30.3 °C 51.4 °F /  10.8 °C 29.8in /  1008.4hPa ONO 5mph /  8.1km/h 13.5mph /  21.7km/h 30% 0in /  0.0mm
16:34 86.7 °F /  30.4 °C 51.6 °F /  10.9 °C 29.8in /  1008.4hPa ONO 6.2mph /  10km/h 14mph /  22.5km/h 30% 0in /  0.0mm
16:39 86.7 °F /  30.4 °C 50.9 °F /  10.5 °C 29.8in /  1008.2hPa ONO 6.3mph /  10.1km/h 12mph /  19.3km/h 29.2% 0in /  0.0mm
16:44 86.9 °F /  30.5 °C 51.1 °F /  10.6 °C 29.8in /  1008.2hPa Oeste 6.4mph /  10.3km/h 10mph /  16.1km/h 29.4% 0in /  0.0mm
16:49 87.1 °F /  30.6 °C 51.6 °F /  10.9 °C 29.8in /  1008.2hPa Este 5.4mph /  8.7km/h 7mph /  11.3km/h 29.7% 0in /  0.0mm
16:54 87.1 °F /  30.6 °C 52.2 °F /  11.2 °C 29.8in /  1008.1hPa Sur 3.6mph /  5.8km/h 9.2mph /  14.8km/h 30.2% 0in /  0.0mm
16:59 87.3 °F /  30.7 °C 54 °F /  12.2 °C 29.8in /  1008.1hPa ENE 3.9mph /  6.3km/h 9mph /  14.5km/h 32.2% 0in /  0.0mm
17:04 87.3 °F /  30.7 °C 53.8 °F /  12.1 °C 29.8in /  1008.1hPa OSO 4.3mph /  6.9km/h 8.1mph /  13km/h 32% 0in /  0.0mm
17:09 87.3 °F /  30.7 °C 54 °F /  12.2 °C 29.8in /  1007.9hPa SSE 3.9mph /  6.2km/h 8mph /  12.9km/h 32.3% 0in /  0.0mm
17:14 87.3 °F /  30.7 °C 53.8 °F /  12.1 °C 29.8in /  1007.9hPa SE 3.1mph /  5km/h 15.2mph /  24.5km/h 31.9% 0in /  0.0mm
17:19 86.7 °F /  30.4 °C 53.4 °F /  11.9 °C 29.8in /  1007.9hPa SSE 4.5mph /  7.2km/h 15mph /  24.1km/h 32% 0in /  0.0mm
17:24 86.5 °F /  30.3 °C 54 °F /  12.2 °C 29.8in /  1007.7hPa SSE 6.9mph /  11.1km/h 14mph /  22.5km/h 32.8% 0in /  0.0mm
17:29 86.5 °F /  30.3 °C 54 °F /  12.2 °C 29.8in /  1007.7hPa Sur 6.9mph /  11.1km/h 13mph /  20.9km/h 33% 0in /  0.0mm
17:34 86.7 °F /  30.4 °C 54.1 °F /  12.3 °C 29.8in /  1007.8hPa Sur 6.9mph /  11.1km/h 13mph /  20.9km/h 32.9% 0in /  0.0mm
17:39 86.9 °F /  30.5 °C 54.1 °F /  12.3 °C 29.8in /  1007.8hPa SO 6.6mph /  10.7km/h 12mph /  19.3km/h 32.8% 0in /  0.0mm
17:44 87.1 °F /  30.6 °C 54.3 °F /  12.4 °C 29.8in /  1007.8hPa SSE 6.2mph /  10km/h 10mph /  16.1km/h 32.8% 0in /  0.0mm
17:49 87.1 °F /  30.6 °C 52.5 °F /  11.4 °C 29.8in /  1008.0hPa NO 5.8mph /  9.4km/h 13.8mph /  22.2km/h 30.7% 0in /  0.0mm
17:54 87.1 °F /  30.6 °C 52.3 °F /  11.3 °C 29.8in /  1008.0hPa ONO 5.2mph /  8.4km/h 14mph /  22.5km/h 30.6% 0in /  0.0mm
17:59 87.3 °F /  30.7 °C 52.2 °F /  11.2 °C 29.8in /  1008.0hPa NO 5.8mph /  9.3km/h 13.8mph /  22.2km/h 30.3% 0in /  0.0mm
18:04 87.3 °F /  30.7 °C 52.3 °F /  11.3 °C 29.8in /  1008.0hPa NO 6.4mph /  10.3km/h 16.3mph /  26.2km/h 30.4% 0in /  0.0mm
18:09 87.1 °F /  30.6 °C 52 °F /  11.1 °C 29.8in /  1007.9hPa NO 7.2mph /  11.6km/h 17.5mph /  28.2km/h 30% 0in /  0.0mm
18:14 86.7 °F /  30.4 °C 51.6 °F /  10.9 °C 29.8in /  1007.9hPa NO 8.7mph /  14km/h 19.2mph /  30.9km/h 30% 0in /  0.0mm
18:19 86.5 °F /  30.3 °C 51.6 °F /  10.9 °C 29.8in /  1007.9hPa ONO 9.8mph /  15.8km/h 20.7mph /  33.3km/h 30.3% 0in /  0.0mm
18:24 86.4 °F /  30.2 °C 52 °F /  11.1 °C 29.8in /  1007.9hPa ONO 11.8mph /  19km/h 21mph /  33.8km/h 30.8% 0in /  0.0mm
18:29 86.4 °F /  30.2 °C 52.3 °F /  11.3 °C 29.8in /  1007.9hPa NO 11.7mph /  18.8km/h 18.5mph /  29.8km/h 31.2% 0in /  0.0mm
18:34 86 °F /  30 °C 52.7 °F /  11.5 °C 29.8in /  1007.9hPa NO 11.4mph /  18.4km/h 19mph /  30.6km/h 32% 0in /  0.0mm
18:39 85.6 °F /  29.8 °C 52.3 °F /  11.3 °C 29.8in /  1007.9hPa ONO 11.3mph /  18.2km/h 21.9mph /  35.2km/h 32% 0in /  0.0mm
18:44 85.5 °F /  29.7 °C 52.9 °F /  11.6 °C 29.8in /  1007.9hPa NO 11.2mph /  18km/h 22mph /  35.4km/h 32.8% 0in /  0.0mm
18:49 85.3 °F /  29.6 °C 52.9 °F /  11.6 °C 29.8in /  1007.9hPa NO 11.3mph /  18.2km/h 20.7mph /  33.3km/h 33% 0in /  0.0mm
18:54 84.9 °F /  29.4 °C 53.2 °F /  11.8 °C 29.8in /  1007.9hPa NO 11.4mph /  18.4km/h 21mph /  33.8km/h 33.7% 0in /  0.0mm
18:59 85.1 °F /  29.5 °C 52.9 °F /  11.6 °C 29.8in /  1007.9hPa NO 10.7mph /  17.3km/h 20.7mph /  33.3km/h 33.1% 0in /  0.0mm
19:04 84.7 °F /  29.3 °C 52.9 °F /  11.6 °C 29.8in /  1008.1hPa NO 10mph /  16.1km/h 21mph /  33.8km/h 33.4% 0in /  0.0mm
19:09 84.6 °F /  29.2 °C 53.1 °F /  11.7 °C 29.8in /  1008.1hPa NO 10.4mph /  16.8km/h 22.3mph /  35.9km/h 33.9% 0in /  0.0mm
19:14 84.2 °F /  29 °C 52.7 °F /  11.5 °C 29.8in /  1008.1hPa ONO 11.2mph /  18km/h 25.6mph /  41.2km/h 34% 0in /  0.0mm
19:19 83.8 °F /  28.8 °C 52.5 °F /  11.4 °C 29.8in /  1008.1hPa ONO 12.2mph /  19.7km/h 26mph /  41.8km/h 34% 0in /  0.0mm
19:24 83.7 °F /  28.7 °C 52.7 °F /  11.5 °C 29.8in /  1008.0hPa NO 14mph /  22.5km/h 22mph /  35.4km/h 34.4% 0in /  0.0mm
19:29 83.7 °F /  28.7 °C 52.7 °F /  11.5 °C 29.8in /  1008.0hPa ONO 13.4mph /  21.5km/h 21.9mph /  35.2km/h 34.4% 0in /  0.0mm
19:34 83.7 °F /  28.7 °C 52.7 °F /  11.5 °C 29.8in /  1008.1hPa NO 12.3mph /  19.8km/h 22mph /  35.4km/h 34.4% 0in /  0.0mm
19:39 83.7 °F /  28.7 °C 52.2 °F /  11.2 °C 29.8in /  1008.1hPa NO 11.5mph /  18.5km/h 21mph /  33.8km/h 34% 0in /  0.0mm
19:44 83.3 °F /  28.5 °C 52.3 °F /  11.3 °C 29.8in /  1008.1hPa ONO 10mph /  16.1km/h 18.4mph /  29.6km/h 34.3% 0in /  0.0mm
19:49 83.1 °F /  28.4 °C 52.2 °F /  11.2 °C 29.8in /  1008.3hPa ONO 9.9mph /  15.9km/h 18mph /  29km/h 34.5% 0in /  0.0mm
19:54 82.9 °F /  28.3 °C 52.2 °F /  11.2 °C 29.8in /  1008.3hPa ONO 9.7mph /  15.6km/h 16mph /  25.7km/h 34.6% 0in /  0.0mm
19:59 82.8 °F /  28.2 °C 52.2 °F /  11.2 °C 29.8in /  1008.3hPa NO 8.9mph /  14.4km/h 13.8mph /  22.2km/h 34.9% 0in /  0.0mm
20:04 82.4 °F /  28 °C 52 °F /  11.1 °C 29.8in /  1008.3hPa NO 8.1mph /  13km/h 16.8mph /  27km/h 34.9% 0in /  0.0mm
20:09 82.2 °F /  27.9 °C 51.8 °F /  11 °C 29.8in /  1008.2hPa ONO 8.3mph /  13.4km/h 17.8mph /  28.6km/h 35% 0in /  0.0mm
20:14 81.9 °F /  27.7 °C 51.8 °F /  11 °C 29.8in /  1008.2hPa NO 8.7mph /  14km/h 20.8mph /  33.5km/h 35.3% 0in /  0.0mm
20:19 81.5 °F /  27.5 °C 52 °F /  11.1 °C 29.8in /  1008.5hPa ONO 9.8mph /  15.8km/h 22.3mph /  35.9km/h 36% 0in /  0.0mm
20:24 81.1 °F /  27.3 °C 51.8 °F /  11 °C 29.8in /  1008.5hPa ONO 11.8mph /  19km/h 24.2mph /  38.9km/h 36.3% 0in /  0.0mm
20:29 80.8 °F /  27.1 °C 52.2 °F /  11.2 °C 29.8in /  1008.5hPa ONO 12.4mph /  20km/h 24mph /  38.6km/h 37% 0in /  0.0mm
20:34 80.6 °F /  27 °C 52 °F /  11.1 °C 29.8in /  1008.7hPa ONO 13.5mph /  21.7km/h 20.7mph /  33.3km/h 37.1% 0in /  0.0mm
20:39 80.2 °F /  26.8 °C 52.3 °F /  11.3 °C 29.8in /  1008.7hPa NO 12.7mph /  20.5km/h 21mph /  33.8km/h 38% 0in /  0.0mm
20:44 80.1 °F /  26.7 °C 52.3 °F /  11.3 °C 29.8in /  1008.7hPa NO 11.4mph /  18.4km/h 21mph /  33.8km/h 38.2% 0in /  0.0mm
20:49 79.7 °F /  26.5 °C 52.5 °F /  11.4 °C 29.8in /  1009.0hPa NO 10.9mph /  17.6km/h 19.7mph /  31.7km/h 39% 0in /  0.0mm
20:54 79.3 °F /  26.3 °C 52.5 °F /  11.4 °C 29.8in /  1009.0hPa ONO 10.2mph /  16.4km/h 20mph /  32.2km/h 39.3% 0in /  0.0mm
20:59 79.2 °F /  26.2 °C 52.9 °F /  11.6 °C 29.8in /  1009.0hPa ONO 10.1mph /  16.3km/h 23mph /  37km/h 40% 0in /  0.0mm
21:04 79.2 °F /  26.2 °C 52.7 °F /  11.5 °C 29.8in /  1009.0hPa ONO 10mph /  16.1km/h 23mph /  37km/h 40% 0in /  0.0mm
21:09 79 °F /  26.1 °C 52.5 °F /  11.4 °C 29.8in /  1009.0hPa ONO 11.2mph /  18.1km/h 23mph /  37km/h 40% 0in /  0.0mm
21:14 79 °F /  26.1 °C 52.5 °F /  11.4 °C 29.8in /  1009.0hPa ONO 13.5mph /  21.7km/h 22mph /  35.4km/h 40% 0in /  0.0mm
21:19 79 °F /  26.1 °C 52.5 °F /  11.4 °C 29.8in /  1009.2hPa ONO 13.4mph /  21.5km/h 24.6mph /  39.6km/h 40% 0in /  0.0mm
21:24 78.8 °F /  26 °C 52.3 °F /  11.3 °C 29.8in /  1009.2hPa ONO 13mph /  20.9km/h 25mph /  40.2km/h 40% 0in /  0.0mm
21:29 78.8 °F /  26 °C 52.3 °F /  11.3 °C 29.8in /  1009.2hPa ONO 13.3mph /  21.4km/h 25.6mph /  41.2km/h 40% 0in /  0.0mm
21:34 78.8 °F /  26 °C 52.5 °F /  11.4 °C 29.8in /  1009.3hPa ONO 14mph /  22.5km/h 26mph /  41.8km/h 40.4% 0in /  0.0mm
21:39 78.6 °F /  25.9 °C 52.9 °F /  11.6 °C 29.8in /  1009.3hPa ONO 13.4mph /  21.6km/h 21.3mph /  34.3km/h 41% 0in /  0.0mm
21:44 78.4 °F /  25.8 °C 52.9 °F /  11.6 °C 29.8in /  1009.3hPa ONO 12.3mph /  19.8km/h 21mph /  33.8km/h 41% 0in /  0.0mm
21:49 78.4 °F /  25.8 °C 52.9 °F /  11.6 °C 29.8in /  1009.7hPa ONO 11.7mph /  18.8km/h 20mph /  32.2km/h 41% 0in /  0.0mm
21:54 78.3 °F /  25.7 °C 52.7 °F /  11.5 °C 29.8in /  1009.7hPa ONO 10.7mph /  17.2km/h 16mph /  25.7km/h 41% 0in /  0.0mm
21:59 78.3 °F /  25.7 °C 53.1 °F /  11.7 °C 29.8in /  1009.7hPa Oeste 9.3mph /  14.9km/h 15mph /  24.1km/h 41.6% 0in /  0.0mm
22:04 78.1 °F /  25.6 °C 53.1 °F /  11.7 °C 29.8in /  1009.9hPa Oeste 7.6mph /  12.2km/h 14mph /  22.5km/h 42% 0in /  0.0mm
22:09 77.9 °F /  25.5 °C 53.1 °F /  11.7 °C 29.8in /  1009.9hPa OSO 6.7mph /  10.8km/h 9.7mph /  15.6km/h 42% 0in /  0.0mm
22:14 77.7 °F /  25.4 °C 52.9 °F /  11.6 °C 29.8in /  1009.9hPa OSO 5.2mph /  8.4km/h 10mph /  16.1km/h 42% 0in /  0.0mm
22:19 77.7 °F /  25.4 °C 52.9 °F /  11.6 °C 29.8in /  1010.2hPa SO 4.8mph /  7.7km/h 8.1mph /  13km/h 42% 0in /  0.0mm
22:24 77.7 °F /  25.4 °C 52.7 °F /  11.5 °C 29.8in /  1010.2hPa SO 4mph /  6.5km/h 7mph /  11.3km/h 42% 0in /  0.0mm
22:29 77.7 °F /  25.4 °C 52.7 °F /  11.5 °C 29.8in /  1010.2hPa OSO 3.6mph /  5.8km/h 5.8mph /  9.3km/h 42% 0in /  0.0mm
22:34 77.7 °F /  25.4 °C 52.9 °F /  11.6 °C 29.8in /  1010.2hPa Sur 2.9mph /  4.7km/h 6mph /  9.7km/h 42% 0in /  0.0mm
22:39 77.9 °F /  25.5 °C 53.1 °F /  11.7 °C 29.8in /  1010.2hPa ESE 3mph /  4.8km/h 8.5mph /  13.7km/h 42% 0in /  0.0mm
22:44 78.1 °F /  25.6 °C 52.9 °F /  11.6 °C 29.8in /  1010.2hPa NO 3.1mph /  5km/h 9mph /  14.5km/h 41.8% 0in /  0.0mm
22:49 78.1 °F /  25.6 °C 53.1 °F /  11.7 °C 29.8in /  1010.3hPa NNO 3.3mph /  5.3km/h 6mph /  9.7km/h 42% 0in /  0.0mm
22:54 77.9 °F /  25.5 °C 52.9 °F /  11.6 °C 29.8in /  1010.3hPa NO 3.6mph /  5.8km/h 6mph /  9.7km/h 42% 0in /  0.0mm
22:59 77.7 °F /  25.4 °C 52.9 °F /  11.6 °C 29.8in /  1010.3hPa North 3mph /  4.9km/h 5mph /  8km/h 42% 0in /  0.0mm
23:04 77.5 °F /  25.3 °C 53.2 °F /  11.8 °C 29.8in /  1010.3hPa SSE 2.4mph /  3.9km/h 8.1mph /  13km/h 42.9% 0in /  0.0mm
23:09 77.5 °F /  25.3 °C 52.7 °F /  11.5 °C 29.8in /  1010.3hPa Sur 3mph /  4.8km/h 8mph /  12.9km/h 42.2% 0in /  0.0mm
23:14 77.5 °F /  25.3 °C 52.9 °F /  11.6 °C 29.8in /  1010.3hPa SO 4mph /  6.5km/h 7mph /  11.3km/h 42.4% 0in /  0.0mm
23:19 77.4 °F /  25.2 °C 52.7 °F /  11.5 °C 29.8in /  1010.4hPa OSO 3.9mph /  6.2km/h 6.9mph /  11.1km/h 42.3% 0in /  0.0mm
23:24 77.4 °F /  25.2 °C 53.1 °F /  11.7 °C 29.8in /  1010.4hPa SO 3.6mph /  5.8km/h 7mph /  11.3km/h 43% 0in /  0.0mm
23:29 77 °F /  25 °C 52.7 °F /  11.5 °C 29.8in /  1010.4hPa SO 3.6mph /  5.8km/h 6.2mph /  10km/h 43% 0in /  0.0mm
23:34 76.6 °F /  24.8 °C 53.1 °F /  11.7 °C 29.8in /  1010.5hPa SSO 3.6mph /  5.8km/h 6mph /  9.7km/h 43.8% 0in /  0.0mm
23:39 76.6 °F /  24.8 °C 53.1 °F /  11.7 °C 29.8in /  1010.5hPa OSO 3.4mph /  5.5km/h 6mph /  9.7km/h 44% 0in /  0.0mm
23:44 76.6 °F /  24.8 °C 53.1 °F /  11.7 °C 29.8in /  1010.5hPa OSO 3.1mph /  5km/h 6.2mph /  10km/h 44% 0in /  0.0mm
23:49 76.5 °F /  24.7 °C 52.9 °F /  11.6 °C 29.8in /  1010.5hPa OSO 3.1mph /  5km/h 6.2mph /  10km/h 44% 0in /  0.0mm
23:54 76.5 °F /  24.7 °C 53.2 °F /  11.8 °C 29.8in /  1010.5hPa Oeste 3.1mph /  5km/h 6mph /  9.7km/h 44.8% 0in /  0.0mm
23:59 76.1 °F /  24.5 °C 53.2 °F /  11.8 °C 29.8in /  1010.5hPa Oeste 3.5mph /  5.6km/h 7.4mph /  11.9km/h 45% 0in /  0.0mm
Murcia-Puente Tocinos, España
Compliments of Weather Underground - 3 mb

La estación de MeteoMurcia.com, publica sus datos en los siguientes proyectos:

Weather Underground PWS IMURCIAP2 Meteoclimatic www.awekas.at

W3Counter
Web Analytics